createdAt,value
2018-02-09T00:00:09.236Z,40.53
2018-02-09T00:02:37.078Z,41.83
2018-02-09T00:05:04.547Z,39.83
2018-02-09T00:07:32.121Z,39.83
2018-02-09T00:09:59.688Z,40.13
2018-02-09T00:12:27.134Z,40.10
2018-02-09T00:14:54.630Z,41.33
2018-02-09T00:17:22.091Z,39.83
2018-02-09T00:19:49.541Z,39.10
2018-02-09T00:22:17.022Z,40.70
2018-02-09T00:24:44.916Z,41.57
2018-02-09T00:27:12.373Z,41.83
2018-02-09T00:29:39.827Z,42.67
2018-02-09T00:32:17.258Z,43.10
2018-02-09T00:34:44.736Z,43.43
2018-02-09T00:37:12.514Z,43.57
2018-02-09T00:39:40.080Z,42.23
2018-02-09T00:42:07.567Z,44.90
2018-02-09T00:44:35.408Z,42.23
2018-02-09T00:47:02.866Z,41.80
2018-02-09T00:49:30.328Z,43.10
2018-02-09T00:51:58.120Z,43.93
2018-02-09T00:54:25.614Z,44.10
2018-02-09T00:56:53.125Z,42.67
2018-02-09T00:59:20.944Z,43.47
2018-02-09T01:01:48.440Z,44.70
2018-02-09T01:04:15.890Z,44.93
2018-02-09T01:06:43.792Z,45.87
2018-02-09T01:09:11.291Z,44.70
2018-02-09T01:11:38.770Z,44.73
2018-02-09T01:14:06.356Z,43.80
2018-02-09T01:16:33.816Z,45.10
2018-02-09T01:19:01.297Z,45.13
2018-02-09T01:21:28.764Z,43.80
2018-02-09T01:23:56.264Z,43.20
2018-02-09T01:26:23.702Z,43.90
2018-02-09T01:28:51.230Z,42.87
2018-02-09T01:31:18.684Z,43.50
2018-02-09T01:33:46.194Z,40.53
2018-02-09T01:36:13.656Z,45.37
2018-02-09T01:38:41.114Z,43.43
2018-02-09T01:41:08.614Z,42.90
2018-02-09T01:43:36.056Z,42.80
2018-02-09T01:46:03.534Z,44.57
2018-02-09T01:48:31.088Z,44.00
2018-02-09T01:50:58.704Z,43.53
2018-02-09T01:53:26.160Z,43.90
2018-02-09T01:55:53.602Z,43.67
2018-02-09T01:58:21.153Z,45.33
2018-02-09T02:00:48.580Z,46.03
2018-02-09T02:03:16.130Z,44.27
2018-02-09T02:05:43.642Z,44.90
2018-02-09T02:08:11.188Z,42.67
2018-02-09T02:10:38.670Z,43.73
2018-02-09T02:13:06.520Z,45.87
2018-02-09T02:15:34.024Z,43.83
2018-02-09T02:18:01.465Z,44.90
2018-02-09T02:20:28.990Z,45.30
2018-02-09T02:22:56.474Z,44.87
2018-02-09T02:25:23.925Z,44.87
2018-02-09T02:27:51.413Z,44.40
2018-02-09T02:30:19.829Z,45.27
2018-02-09T02:32:47.312Z,46.87
2018-02-09T02:35:15.682Z,46.57
2018-02-09T02:37:43.194Z,45.10
2018-02-09T02:40:10.650Z,46.00
2018-02-09T02:42:38.232Z,46.60
2018-02-09T02:45:05.728Z,46.27
2018-02-09T02:47:33.228Z,45.83
2018-02-09T02:50:00.697Z,45.87
2018-02-09T02:52:28.198Z,44.00
2018-02-09T02:54:55.660Z,45.80
2018-02-09T02:57:23.218Z,45.63
2018-02-09T02:59:50.740Z,47.33
2018-02-09T03:02:18.244Z,46.07
2018-02-09T03:04:45.836Z,46.03
2018-02-09T03:07:13.306Z,45.53
2018-02-09T03:09:41.122Z,46.53
2018-02-09T03:12:08.614Z,47.13
2018-02-09T03:14:36.176Z,46.70
2018-02-09T03:17:03.650Z,47.67
2018-02-09T03:19:38.380Z,46.27
2018-02-09T03:22:06.192Z,47.10
2018-02-09T03:24:33.724Z,47.40
2018-02-09T03:27:01.262Z,46.13
2018-02-09T03:29:28.776Z,46.67
2018-02-09T03:31:56.506Z,47.57
2018-02-09T03:34:24.046Z,46.83
2018-02-09T03:36:51.547Z,46.03
2018-02-09T03:39:18.992Z,48.07
2018-02-09T03:41:46.432Z,48.17
2018-02-09T03:44:13.918Z,48.00
2018-02-09T03:46:41.372Z,47.67
2018-02-09T03:49:09.106Z,45.03
2018-02-09T03:51:36.770Z,48.17
2018-02-09T03:54:04.254Z,48.97
2018-02-09T03:56:31.760Z,46.77
2018-02-09T03:58:59.220Z,47.93
2018-02-09T04:01:29.370Z,49.40
2018-02-09T04:03:56.990Z,48.30
2018-02-09T04:06:24.445Z,49.27
2018-02-09T04:08:51.950Z,48.83
2018-02-09T04:11:19.712Z,47.77
2018-02-09T04:13:47.166Z,48.07
2018-02-09T04:16:14.625Z,50.73
2018-02-09T04:18:42.144Z,48.63
2018-02-09T04:21:09.915Z,50.33
2018-02-09T04:23:37.406Z,50.47
2018-02-09T04:26:04.888Z,50.47
2018-02-09T04:28:32.676Z,49.33
2018-02-09T04:31:00.111Z,49.63
2018-02-09T04:33:27.568Z,50.63
2018-02-09T04:35:55.058Z,48.67
2018-02-09T04:38:22.527Z,50.37
2018-02-09T04:40:49.978Z,50.37
2018-02-09T04:43:17.476Z,52.17
2018-02-09T04:45:46.179Z,52.20
2018-02-09T04:48:13.669Z,53.00
2018-02-09T04:50:41.150Z,51.37
2018-02-09T04:53:08.630Z,51.57
2018-02-09T04:55:36.077Z,50.27
2018-02-09T04:58:03.593Z,52.53
2018-02-09T05:00:31.057Z,52.47
2018-02-09T05:02:58.636Z,51.03
2018-02-09T05:05:26.096Z,52.50
2018-02-09T05:07:53.578Z,52.33
2018-02-09T05:10:22.214Z,54.50
2018-02-09T05:12:49.717Z,52.43
2018-02-09T05:15:17.185Z,54.40
2018-02-09T05:17:44.638Z,52.60
2018-02-09T05:20:12.145Z,54.13
2018-02-09T05:22:39.612Z,53.43
2018-02-09T05:25:07.470Z,54.30
2018-02-09T05:27:34.975Z,55.30
2018-02-09T05:30:02.457Z,53.97
2018-02-09T05:32:30.023Z,55.07
2018-02-09T05:34:57.698Z,54.37
2018-02-09T05:37:25.155Z,53.73
2018-02-09T05:39:52.718Z,53.77
2018-02-09T05:42:20.431Z,54.63
2018-02-09T05:44:47.920Z,57.33
2018-02-09T05:47:15.372Z,54.57
2018-02-09T05:49:42.953Z,54.37
2018-02-09T05:52:10.476Z,57.10
2018-02-09T05:54:37.967Z,54.17
2018-02-09T05:57:05.426Z,54.23
2018-02-09T05:59:32.983Z,56.07
2018-02-09T06:02:00.466Z,56.93
2018-02-09T06:04:28.329Z,57.87
2018-02-09T06:06:55.813Z,54.37
2018-02-09T06:09:23.270Z,55.37
2018-02-09T06:11:50.773Z,56.37
2018-02-09T06:14:18.253Z,57.53
2018-02-09T06:16:45.751Z,57.40
2018-02-09T06:19:13.237Z,56.40
2018-02-09T06:21:40.761Z,57.90
2018-02-09T06:24:08.261Z,57.33
2018-02-09T06:26:36.129Z,57.57
2018-02-09T06:29:03.622Z,58.43
2018-02-09T06:31:31.111Z,57.80
2018-02-09T06:33:58.705Z,58.97
2018-02-09T06:36:26.227Z,57.07
2018-02-09T06:38:54.083Z,55.70
2018-02-09T06:41:21.695Z,56.40
2018-02-09T06:43:50.349Z,56.33
2018-02-09T06:46:17.897Z,56.60
2018-02-09T06:48:45.371Z,55.10
2018-02-09T06:51:12.977Z,58.77
2018-02-09T06:53:40.439Z,58.70
2018-02-09T06:56:07.930Z,57.30
2018-02-09T06:58:35.377Z,56.67
2018-02-09T07:01:02.939Z,56.90
2018-02-09T07:03:30.444Z,56.77
2018-02-09T07:05:58.278Z,56.63
2018-02-09T07:08:25.887Z,56.07
2018-02-09T07:10:53.361Z,57.07
2018-02-09T07:13:20.883Z,59.77
2018-02-09T07:15:48.429Z,56.10
2018-02-09T07:18:15.899Z,55.73
2018-02-09T07:20:43.395Z,57.07
2018-02-09T07:23:11.199Z,57.03
2018-02-09T07:25:38.685Z,56.03
2018-02-09T07:28:06.150Z,56.23
2018-02-09T07:30:33.609Z,55.10
2018-02-09T07:33:01.131Z,56.53
2018-02-09T07:35:28.721Z,55.77
2018-02-09T07:37:56.268Z,55.60
2018-02-09T07:40:24.113Z,54.67
2018-02-09T07:42:52.463Z,54.40
2018-02-09T07:45:19.925Z,56.07
2018-02-09T07:47:47.395Z,54.73
2018-02-09T07:50:14.909Z,54.70
2018-02-09T07:52:42.415Z,55.47
2018-02-09T07:55:09.903Z,58.10
2018-02-09T07:57:37.495Z,56.37
2018-02-09T08:00:05.853Z,55.20
2018-02-09T08:02:33.609Z,54.47
2018-02-09T08:05:01.105Z,54.23
2018-02-09T08:07:28.587Z,56.20
2018-02-09T08:09:56.101Z,55.90
2018-02-09T08:12:23.699Z,53.70
2018-02-09T08:14:51.473Z,54.30
2018-02-09T08:17:18.968Z,55.50
2018-02-09T08:19:46.731Z,54.43
2018-02-09T08:22:14.618Z,54.83
2018-02-09T08:24:42.093Z,53.63
2018-02-09T08:27:09.930Z,54.97
2018-02-09T08:29:37.591Z,54.83
2018-02-09T08:32:05.057Z,54.27
2018-02-09T08:34:32.653Z,56.40
2018-02-09T08:37:00.269Z,56.87
2018-02-09T08:39:27.780Z,51.73
2018-02-09T08:41:55.557Z,54.13
2018-02-09T08:44:23.265Z,53.37
2018-02-09T08:46:50.893Z,54.30
2018-02-09T08:49:18.526Z,54.70
2018-02-09T08:51:46.337Z,53.30
2018-02-09T08:54:13.889Z,51.37
2018-02-09T08:56:41.477Z,50.97
2018-02-09T08:59:09.121Z,52.07
2018-02-09T09:01:36.659Z,52.10
2018-02-09T09:04:04.196Z,50.97
2018-02-09T09:06:32.035Z,51.07
2018-02-09T09:08:59.653Z,51.47
2018-02-09T09:11:27.230Z,53.53
2018-02-09T09:13:54.801Z,49.83
2018-02-09T09:16:22.388Z,51.87
2018-02-09T09:18:50.117Z,49.50
2018-02-09T09:21:17.987Z,48.93
2018-02-09T09:23:45.530Z,48.70
2018-02-09T09:26:13.005Z,47.60
2018-02-09T09:28:41.415Z,48.13
2018-02-09T09:31:09.887Z,47.70
2018-02-09T09:33:37.403Z,47.33
2018-02-09T09:36:05.208Z,47.83
2018-02-09T09:38:32.684Z,48.43
2018-02-09T09:41:00.175Z,47.70
2018-02-09T09:43:27.909Z,47.50
2018-02-09T09:45:55.412Z,47.90
2018-02-09T09:48:22.983Z,46.63
2018-02-09T09:50:50.509Z,46.30
2018-02-09T09:53:18.111Z,44.77
2018-02-09T09:55:45.797Z,44.00
2018-02-09T09:58:13.918Z,46.37
2018-02-09T10:00:42.770Z,43.07
2018-02-09T10:03:10.306Z,44.77
2018-02-09T10:05:38.765Z,41.03
2018-02-09T10:08:06.222Z,43.53
2018-02-09T10:10:33.815Z,44.60
2018-02-09T10:13:01.353Z,43.17
2018-02-09T10:15:28.842Z,43.23
2018-02-09T10:17:56.486Z,42.37
2018-02-09T10:20:24.193Z,42.43
2018-02-09T10:22:52.508Z,41.83
2018-02-09T10:25:19.969Z,42.40
2018-02-09T10:27:47.610Z,43.60
2018-02-09T10:30:15.170Z,42.13
2018-02-09T10:32:42.745Z,42.73
2018-02-09T10:35:10.325Z,43.33
2018-02-09T10:37:37.798Z,44.57
2018-02-09T10:40:05.254Z,44.73
2018-02-09T10:42:32.844Z,43.97
2018-02-09T10:45:00.378Z,45.33
2018-02-09T10:47:27.861Z,45.67
2018-02-09T10:49:55.366Z,43.73
2018-02-09T10:52:22.922Z,44.47
2018-02-09T10:54:50.491Z,44.27
2018-02-09T10:57:18.040Z,44.70
2018-02-09T10:59:45.605Z,43.13
2018-02-09T11:02:13.259Z,44.17
2018-02-09T11:04:40.882Z,46.40
2018-02-09T11:07:08.357Z,42.43
2018-02-09T11:09:37.099Z,44.87
2018-02-09T11:12:07.572Z,44.27
2018-02-09T11:14:35.126Z,43.90
2018-02-09T11:17:02.658Z,41.93
2018-02-09T11:19:31.079Z,44.00
2018-02-09T11:21:59.335Z,45.80
2018-02-09T11:24:26.903Z,42.37
2018-02-09T11:26:54.447Z,41.93
2018-02-09T11:29:21.942Z,41.87
2018-02-09T11:31:49.827Z,43.67
2018-02-09T11:34:17.379Z,41.83
2018-02-09T11:36:45.949Z,43.23
2018-02-09T11:39:13.800Z,40.93
2018-02-09T11:41:41.292Z,42.33
2018-02-09T11:44:08.925Z,43.10
2018-02-09T11:46:36.574Z,43.13
2018-02-09T11:49:04.039Z,40.13
2018-02-09T11:51:31.526Z,41.47
2018-02-09T11:53:59.171Z,39.67
2018-02-09T11:56:26.804Z,40.73
2018-02-09T11:58:54.588Z,39.73
2018-02-09T12:01:22.216Z,41.60
2018-02-09T12:03:49.870Z,38.47
2018-02-09T12:06:17.938Z,39.17
2018-02-09T12:08:45.504Z,40.93
2018-02-09T12:11:13.218Z,39.90
2018-02-09T12:13:40.773Z,39.63
2018-02-09T12:16:08.334Z,39.77
2018-02-09T12:18:35.840Z,39.00
2018-02-09T12:21:03.338Z,42.03
2018-02-09T12:23:30.811Z,40.37
2018-02-09T12:25:59.433Z,41.53
2018-02-09T12:28:27.514Z,40.43
2018-02-09T12:30:54.970Z,41.13
2018-02-09T12:33:22.508Z,38.87
2018-02-09T12:35:50.050Z,40.40
2018-02-09T12:38:17.530Z,42.33
2018-02-09T12:40:45.034Z,40.53
2018-02-09T12:43:12.730Z,39.47
2018-02-09T12:45:40.269Z,40.33
2018-02-09T12:48:07.732Z,40.67
2018-02-09T12:50:35.212Z,41.27
2018-02-09T12:53:02.758Z,42.43
2018-02-09T12:55:30.276Z,41.20
2018-02-09T12:57:57.772Z,39.73
2018-02-09T13:00:25.368Z,43.00
2018-02-09T13:02:52.969Z,42.67
2018-02-09T13:05:21.344Z,42.67
2018-02-09T13:07:49.010Z,42.50
2018-02-09T13:10:16.468Z,42.30
2018-02-09T13:12:55.881Z,41.70
2018-02-09T13:15:23.360Z,41.70
2018-02-09T13:17:50.987Z,41.33
2018-02-09T13:20:18.512Z,43.57
2018-02-09T13:22:57.893Z,43.50
2018-02-09T13:25:25.338Z,43.27
2018-02-09T13:27:52.782Z,43.10
2018-02-09T13:30:20.395Z,43.73
2018-02-09T13:32:59.661Z,41.80
2018-02-09T13:35:28.950Z,42.63
2018-02-09T13:37:56.554Z,43.00
2018-02-09T13:40:24.130Z,42.97
2018-02-09T13:42:56.581Z,42.80
2018-02-09T13:45:25.072Z,43.10
2018-02-09T13:47:52.575Z,42.57
2018-02-09T13:50:20.872Z,43.00
2018-02-09T13:52:48.605Z,44.33
2018-02-09T13:55:16.158Z,43.33
2018-02-09T13:57:43.653Z,44.47
2018-02-09T14:00:11.153Z,43.00
2018-02-09T14:02:38.738Z,43.40
2018-02-09T14:05:06.273Z,44.97
2018-02-09T14:07:33.765Z,43.73
2018-02-09T14:10:01.428Z,43.43
2018-02-09T14:12:29.055Z,43.57
2018-02-09T14:14:56.543Z,44.17
2018-02-09T14:17:24.061Z,43.00
2018-02-09T14:19:51.760Z,42.67
2018-02-09T14:22:19.568Z,43.87
2018-02-09T14:24:47.044Z,44.20
2018-02-09T14:27:14.594Z,43.30
2018-02-09T14:29:43.138Z,43.47
2018-02-09T14:32:10.692Z,43.97
2018-02-09T14:34:38.189Z,43.80
2018-02-09T14:37:05.695Z,44.50
2018-02-09T14:39:33.244Z,42.73
2018-02-09T14:42:00.751Z,45.03
2018-02-09T14:44:28.349Z,44.37
2018-02-09T14:46:55.957Z,44.90
2018-02-09T14:49:23.553Z,44.60
2018-02-09T14:51:51.167Z,44.40
2018-02-09T14:54:19.039Z,42.10
2018-02-09T14:56:47.027Z,44.00
2018-02-09T14:59:14.710Z,42.77
2018-02-09T15:01:42.305Z,43.67
2018-02-09T15:04:10.441Z,42.83
2018-02-09T15:06:38.839Z,42.73
2018-02-09T15:09:06.329Z,44.73
2018-02-09T15:11:34.012Z,43.57
2018-02-09T15:14:01.532Z,43.93
2018-02-09T15:16:29.202Z,41.63
2018-02-09T15:18:56.755Z,42.47
2018-02-09T15:21:24.273Z,44.33
2018-02-09T15:23:51.750Z,43.03
2018-02-09T15:26:19.570Z,42.10
2018-02-09T15:28:47.049Z,42.90
2018-02-09T15:31:14.609Z,44.10
2018-02-09T15:33:42.749Z,45.20
2018-02-09T15:36:10.622Z,44.57
2018-02-09T15:38:38.213Z,44.13
2018-02-09T15:41:05.744Z,43.90
2018-02-09T15:43:33.229Z,44.53
2018-02-09T15:46:00.908Z,42.53
2018-02-09T15:48:28.533Z,42.70
2018-02-09T15:50:56.042Z,43.13
2018-02-09T15:53:23.543Z,44.23
2018-02-09T15:55:51.058Z,43.57
2018-02-09T15:58:18.613Z,44.30
2018-02-09T16:00:47.996Z,44.50
2018-02-09T16:03:15.625Z,44.13
2018-02-09T16:05:43.832Z,43.70
2018-02-09T16:08:11.311Z,45.93
2018-02-09T16:10:38.892Z,44.70
2018-02-09T16:13:06.433Z,44.17
2018-02-09T16:15:34.033Z,44.37
2018-02-09T16:18:01.619Z,43.27
2018-02-09T16:20:29.113Z,43.87
2018-02-09T16:23:01.947Z,42.93
2018-02-09T16:25:30.380Z,42.83
2018-02-09T16:27:58.075Z,44.10
2018-02-09T16:30:25.665Z,45.03
2018-02-09T16:32:53.154Z,41.93
2018-02-09T16:35:20.662Z,43.17
2018-02-09T16:37:48.335Z,45.03
2018-02-09T16:40:16.315Z,43.63
2018-02-09T16:42:43.879Z,43.67
2018-02-09T16:45:11.469Z,45.13
2018-02-09T16:47:39.358Z,44.37
2018-02-09T16:50:06.935Z,44.97
2018-02-09T16:52:34.527Z,45.80
2018-02-09T16:55:02.109Z,44.03
2018-02-09T16:57:29.738Z,46.00
2018-02-09T16:59:57.195Z,46.60
2018-02-09T17:02:24.720Z,44.20
2018-02-09T17:04:52.223Z,45.30
2018-02-09T17:07:19.721Z,47.97
2018-02-09T17:09:47.828Z,47.00
2018-02-09T17:12:16.495Z,47.33
2018-02-09T17:14:44.009Z,46.10
2018-02-09T17:17:11.597Z,46.70
2018-02-09T17:19:39.115Z,44.37
2018-02-09T17:22:06.657Z,46.40
2018-02-09T17:24:34.141Z,48.53
2018-02-09T17:27:03.066Z,46.07
2018-02-09T17:29:30.560Z,49.00
2018-02-09T17:31:58.125Z,47.50
2018-02-09T17:34:25.723Z,47.53
2018-02-09T17:36:53.224Z,47.30
2018-02-09T17:39:20.715Z,48.43
2018-02-09T17:41:48.285Z,48.90
2018-02-09T17:44:15.995Z,48.93
2018-02-09T17:46:43.492Z,47.27
2018-02-09T17:49:11.827Z,48.40
2018-02-09T17:51:54.497Z,49.17
2018-02-09T17:54:22.213Z,50.43
2018-02-09T17:56:49.862Z,51.27
2018-02-09T17:59:18.449Z,50.00
2018-02-09T18:01:45.928Z,51.17
2018-02-09T18:04:13.651Z,51.83
2018-02-09T18:06:41.177Z,53.37
2018-02-09T18:09:08.785Z,54.23
2018-02-09T18:11:36.746Z,54.23
2018-02-09T18:14:04.255Z,53.83
2018-02-09T18:16:31.726Z,52.90
2018-02-09T18:18:59.286Z,54.27
2018-02-09T18:21:27.091Z,52.50
2018-02-09T18:23:54.678Z,53.20
2018-02-09T18:26:22.314Z,52.90
2018-02-09T18:28:49.921Z,51.50
2018-02-09T18:31:17.502Z,52.00
2018-02-09T18:33:45.041Z,51.53
2018-02-09T18:36:12.582Z,51.57
2018-02-09T18:38:40.177Z,53.23
2018-02-09T18:41:07.935Z,48.90
2018-02-09T18:43:35.535Z,53.63
2018-02-09T18:46:03.101Z,49.50
2018-02-09T18:48:30.683Z,50.80
2018-02-09T18:50:58.301Z,49.63
2018-02-09T18:53:25.881Z,50.30
2018-02-09T18:55:53.449Z,50.17
2018-02-09T18:58:21.331Z,50.37
2018-02-09T19:00:48.918Z,50.30
2018-02-09T19:03:16.476Z,51.67
2018-02-09T19:05:44.093Z,47.00
2018-02-09T19:08:11.717Z,50.60
2018-02-09T19:10:39.465Z,50.13
2018-02-09T19:13:06.932Z,49.73
2018-02-09T19:15:34.401Z,50.40
2018-02-09T19:18:03.157Z,50.23
2018-02-09T19:20:30.675Z,48.47
2018-02-09T19:22:58.296Z,46.37
2018-02-09T19:25:25.875Z,49.13
2018-02-09T19:27:53.538Z,50.43
2018-02-09T19:30:21.100Z,48.97
2018-02-09T19:32:48.697Z,49.33
2018-02-09T19:35:16.190Z,49.17
2018-02-09T19:37:43.673Z,48.87
2018-02-09T19:40:11.616Z,47.73
2018-02-09T19:42:39.176Z,46.40
2018-02-09T19:45:06.697Z,46.67
2018-02-09T19:47:34.236Z,46.27
2018-02-09T19:50:01.721Z,47.77
2018-02-09T19:52:29.254Z,46.27
2018-02-09T19:54:56.886Z,47.77
2018-02-09T19:57:24.534Z,48.20
2018-02-09T19:59:52.139Z,47.80
2018-02-09T20:02:19.852Z,47.70
2018-02-09T20:04:47.384Z,46.93
2018-02-09T20:07:14.944Z,46.60
2018-02-09T20:09:42.970Z,48.60
2018-02-09T20:12:15.488Z,46.30
2018-02-09T20:14:43.114Z,49.30
2018-02-09T20:17:10.652Z,46.43
2018-02-09T20:19:38.206Z,45.50
2018-02-09T20:22:05.796Z,47.57
2018-02-09T20:24:33.387Z,45.13
2018-02-09T20:27:01.055Z,45.57
2018-02-09T20:29:28.616Z,46.43
2018-02-09T20:31:56.262Z,46.03
2018-02-09T20:34:23.804Z,46.43
2018-02-09T20:36:51.321Z,45.83
2018-02-09T20:39:20.089Z,46.80
2018-02-09T20:41:47.733Z,47.43
2018-02-09T20:44:15.294Z,46.97
2018-02-09T20:46:42.862Z,46.13
2018-02-09T20:49:10.340Z,47.53
2018-02-09T20:51:37.866Z,45.80
2018-02-09T20:54:05.558Z,48.20
2018-02-09T20:56:33.058Z,47.57
2018-02-09T20:59:00.508Z,47.03
2018-02-09T21:01:28.111Z,46.53
2018-02-09T21:03:55.589Z,46.60
2018-02-09T21:06:23.138Z,46.97
2018-02-09T21:08:50.644Z,45.73
2018-02-09T21:11:18.153Z,45.50
2018-02-09T21:13:45.626Z,45.00
2018-02-09T21:16:13.287Z,45.13
2018-02-09T21:18:40.764Z,45.53
2018-02-09T21:21:08.243Z,45.10
2018-02-09T21:23:36.199Z,45.30
2018-02-09T21:26:04.044Z,47.33
2018-02-09T21:28:31.515Z,46.80
2018-02-09T21:30:59.073Z,46.73
2018-02-09T21:33:26.674Z,43.80
2018-02-09T21:35:54.242Z,44.30
2018-02-09T21:38:21.914Z,46.10
2018-02-09T21:40:49.518Z,46.13
2018-02-09T21:43:17.061Z,44.27
2018-02-09T21:45:44.600Z,44.63
2018-02-09T21:48:12.070Z,44.40
2018-02-09T21:50:39.526Z,43.80
2018-02-09T21:53:07.003Z,44.30
2018-02-09T21:55:35.200Z,44.67
2018-02-09T21:58:02.729Z,43.33
2018-02-09T22:00:30.225Z,45.40
2018-02-09T22:02:57.907Z,45.37
2018-02-09T22:05:25.554Z,45.60
2018-02-09T22:07:56.368Z,45.67
2018-02-09T22:10:23.900Z,45.00
2018-02-09T22:12:51.490Z,42.23
2018-02-09T22:15:19.027Z,43.87
2018-02-09T22:17:46.531Z,43.30
2018-02-09T22:20:14.000Z,45.47
2018-02-09T22:22:41.491Z,44.67
2018-02-09T22:25:08.959Z,43.10
2018-02-09T22:27:36.463Z,42.50
2018-02-09T22:30:04.887Z,43.93
2018-02-09T22:32:32.527Z,43.30
2018-02-09T22:35:00.104Z,44.57
2018-02-09T22:37:27.585Z,41.70
2018-02-09T22:39:55.199Z,41.90
2018-02-09T22:42:22.675Z,42.23
2018-02-09T22:44:50.139Z,44.30
2018-02-09T22:47:17.677Z,40.33
2018-02-09T22:49:45.453Z,42.47
2018-02-09T22:52:13.097Z,41.17
2018-02-09T22:54:40.696Z,41.40
2018-02-09T22:57:08.405Z,43.77
2018-02-09T22:59:36.189Z,41.20
2018-02-09T23:02:03.685Z,43.07
2018-02-09T23:04:31.199Z,40.23
2018-02-09T23:06:58.705Z,41.77
2018-02-09T23:09:26.139Z,42.00
2018-02-09T23:11:53.596Z,39.70
2018-02-09T23:14:21.113Z,43.27
2018-02-09T23:16:48.612Z,41.53
2018-02-09T23:19:16.090Z,41.17
2018-02-09T23:21:43.517Z,41.27
2018-02-09T23:24:11.082Z,41.10
2018-02-09T23:26:38.572Z,41.23
2018-02-09T23:29:06.020Z,42.07
2018-02-09T23:31:33.553Z,41.53
2018-02-09T23:34:01.061Z,40.87
2018-02-09T23:36:28.592Z,39.53
2018-02-09T23:38:56.098Z,41.30
2018-02-09T23:41:23.600Z,39.93
2018-02-09T23:43:51.110Z,41.03
2018-02-09T23:46:18.625Z,41.73
2018-02-09T23:48:46.099Z,39.13
2018-02-09T23:51:13.595Z,40.90
2018-02-09T23:53:41.061Z,42.10
2018-02-09T23:56:08.553Z,41.23
2018-02-09T23:58:36.201Z,41.67
